sensor_id;sensor_type;location;lat;lon;timestamp;pressure;altitude;pressure_sealevel;temperature;humidity
75157;BME280;63736;50.076;8.198;2024-02-21T00:00:44;100422.25;;;8.22;100.00
75157;BME280;63736;50.076;8.198;2024-02-21T00:02:14;100420.56;;;8.21;100.00
75157;BME280;63736;50.076;8.198;2024-02-21T00:03:45;100417.13;;;8.19;100.00
75157;BME280;63736;50.076;8.198;2024-02-21T00:05:15;100422.72;;;8.14;100.00
75157;BME280;63736;50.076;8.198;2024-02-21T00:06:45;100420.13;;;8.13;100.00
75157;BME280;63736;50.076;8.198;2024-02-21T00:08:16;100414.81;;;8.13;100.00
75157;BME280;63736;50.076;8.198;2024-02-21T00:09:46;100422.03;;;8.10;100.00
75157;BME280;63736;50.076;8.198;2024-02-21T00:11:16;100415.78;;;8.12;100.00
75157;BME280;63736;50.076;8.198;2024-02-21T00:12:47;100408.75;;;8.10;100.00
75157;BME280;63736;50.076;8.198;2024-02-21T00:14:17;100405.31;;;8.08;100.00
75157;BME280;63736;50.076;8.198;2024-02-21T00:15:47;100389.34;;;8.08;100.00
75157;BME280;63736;50.076;8.198;2024-02-21T00:17:18;100386.78;;;8.07;100.00
75157;BME280;63736;50.076;8.198;2024-02-21T00:18:48;100397.31;;;8.08;100.00
75157;BME280;63736;50.076;8.198;2024-02-21T00:20:18;100391.16;;;8.08;100.00
75157;BME280;63736;50.076;8.198;2024-02-21T00:21:49;100385.84;;;8.08;100.00
75157;BME280;63736;50.076;8.198;2024-02-21T00:23:19;100376.13;;;8.07;100.00
75157;BME280;63736;50.076;8.198;2024-02-21T00:24:50;100370.91;;;8.05;100.00
75157;BME280;63736;50.076;8.198;2024-02-21T00:26:20;100371.84;;;8.04;100.00
75157;BME280;63736;50.076;8.198;2024-02-21T00:27:50;100371.00;;;8.04;100.00
75157;BME280;63736;50.076;8.198;2024-02-21T00:29:20;100367.66;;;8.00;100.00
75157;BME280;63736;50.076;8.198;2024-02-21T00:30:51;100366.78;;;8.00;100.00
75157;BME280;63736;50.076;8.198;2024-02-21T00:32:23;100362.50;;;7.97;100.00
75157;BME280;63736;50.076;8.198;2024-02-21T00:33:53;100357.19;;;7.97;100.00
75157;BME280;63736;50.076;8.198;2024-02-21T00:35:24;100351.03;;;7.97;100.00
75157;BME280;63736;50.076;8.198;2024-02-21T00:36:54;100344.91;;;7.94;100.00
75157;BME280;63736;50.076;8.198;2024-02-21T00:38:24;100338.66;;;7.96;100.00
75157;BME280;63736;50.076;8.198;2024-02-21T00:39:55;100341.31;;;7.96;100.00
75157;BME280;63736;50.076;8.198;2024-02-21T00:41:25;100342.34;;;7.93;100.00
75157;BME280;63736;50.076;8.198;2024-02-21T00:42:56;100336.09;;;7.94;100.00
75157;BME280;63736;50.076;8.198;2024-02-21T00:44:26;100348.56;;;7.93;100.00
75157;BME280;63736;50.076;8.198;2024-02-21T00:45:57;100352.91;;;7.94;100.00
75157;BME280;63736;50.076;8.198;2024-02-21T00:47:27;100342.34;;;7.93;100.00
75157;BME280;63736;50.076;8.198;2024-02-21T00:48:57;100342.34;;;7.93;100.00
75157;BME280;63736;50.076;8.198;2024-02-21T00:50:27;100335.25;;;7.93;100.00
75157;BME280;63736;50.076;8.198;2024-02-21T00:51:58;100337.22;;;7.90;100.00
75157;BME280;63736;50.076;8.198;2024-02-21T00:53:28;100352.16;;;7.92;100.00
75157;BME280;63736;50.076;8.198;2024-02-21T00:54:58;100354.72;;;7.94;100.00
75157;BME280;63736;50.076;8.198;2024-02-21T00:56:29;100350.34;;;7.93;100.00
75157;BME280;63736;50.076;8.198;2024-02-21T00:58:00;100353.00;;;7.93;100.00
75157;BME280;63736;50.076;8.198;2024-02-21T00:59:30;100355.56;;;7.94;100.00
75157;BME280;63736;50.076;8.198;2024-02-21T01:01:01;100352.16;;;7.92;100.00
75157;BME280;63736;50.076;8.198;2024-02-21T01:02:31;100365.38;;;7.94;100.00
75157;BME280;63736;50.076;8.198;2024-02-21T01:04:02;100357.28;;;7.96;100.00
75157;BME280;63736;50.076;8.198;2024-02-21T01:05:32;100355.50;;;7.96;100.00
75157;BME280;63736;50.076;8.198;2024-02-21T01:07:02;100356.34;;;7.97;100.00
75157;BME280;63736;50.076;8.198;2024-02-21T01:08:33;100357.19;;;7.97;100.00
75157;BME280;63736;50.076;8.198;2024-02-21T01:10:03;100362.50;;;7.97;100.00
75157;BME280;63736;50.076;8.198;2024-02-21T01:11:34;100361.66;;;7.97;100.00
75157;BME280;63736;50.076;8.198;2024-02-21T01:13:04;100368.81;;;7.96;100.00
75157;BME280;63736;50.076;8.198;2024-02-21T01:14:35;100366.97;;;7.97;100.00
75157;BME280;63736;50.076;8.198;2024-02-21T01:16:06;100372.31;;;7.97;100.00
75157;BME280;63736;50.076;8.198;2024-02-21T01:17:36;100374.13;;;7.96;100.00
75157;BME280;63736;50.076;8.198;2024-02-21T01:19:08;100366.97;;;7.97;100.00
75157;BME280;63736;50.076;8.198;2024-02-21T01:20:38;100369.84;;;7.93;100.00
75157;BME280;63736;50.076;8.198;2024-02-21T01:22:08;100360.22;;;7.91;100.00
75157;BME280;63736;50.076;8.198;2024-02-21T01:23:39;100353.97;;;7.92;100.00
75157;BME280;63736;50.076;8.198;2024-02-21T01:25:09;100353.19;;;7.90;100.00
75157;BME280;63736;50.076;8.198;2024-02-21T01:26:40;100348.91;;;7.87;100.00
75157;BME280;63736;50.076;8.198;2024-02-21T01:28:11;100349.94;;;7.85;100.00
75157;BME280;63736;50.076;8.198;2024-02-21T01:29:41;100357.25;;;7.81;100.00
75157;BME280;63736;50.076;8.198;2024-02-21T01:31:11;100349.38;;;7.80;100.00
75157;BME280;63736;50.076;8.198;2024-02-21T01:32:43;100351.25;;;7.77;100.00
75157;BME280;63736;50.076;8.198;2024-02-21T01:34:13;100344.31;;;7.75;100.00
75157;BME280;63736;50.076;8.198;2024-02-21T01:35:43;100329.38;;;7.72;100.00
75157;BME280;63736;50.076;8.198;2024-02-21T01:37:14;100331.19;;;7.72;100.00
75157;BME280;63736;50.076;8.198;2024-02-21T01:38:44;100325.09;;;7.70;100.00
75157;BME280;63736;50.076;8.198;2024-02-21T01:40:14;100319.97;;;7.67;100.00
75157;BME280;63736;50.076;8.198;2024-02-21T01:41:45;100327.19;;;7.65;100.00
75157;BME280;63736;50.076;8.198;2024-02-21T01:43:19;100324.63;;;7.63;100.00
75157;BME280;63736;50.076;8.198;2024-02-21T01:44:50;100323.00;;;7.60;100.00
75157;BME280;63736;50.076;8.198;2024-02-21T01:46:21;100322.25;;;7.58;100.00
75157;BME280;63736;50.076;8.198;2024-02-21T01:47:52;100322.34;;;7.57;100.00
75157;BME280;63736;50.076;8.198;2024-02-21T01:49:22;100311.03;;;7.53;100.00
75157;BME280;63736;50.076;8.198;2024-02-21T01:50:54;100306.66;;;7.52;100.00
75157;BME280;63736;50.076;8.198;2024-02-21T01:52:24;100297.84;;;7.52;100.00
75157;BME280;63736;50.076;8.198;2024-02-21T01:53:56;100291.63;;;7.51;100.00
75157;BME280;63736;50.076;8.198;2024-02-21T01:55:27;100288.22;;;7.49;100.00
75157;BME280;63736;50.076;8.198;2024-02-21T01:56:57;100293.72;;;7.46;100.00
75157;BME280;63736;50.076;8.198;2024-02-21T01:58:28;100300.84;;;7.46;100.00
75157;BME280;63736;50.076;8.198;2024-02-21T01:59:59;100301.78;;;7.44;100.00
75157;BME280;63736;50.076;8.198;2024-02-21T02:01:29;100300.06;;;7.43;100.00
75157;BME280;63736;50.076;8.198;2024-02-21T02:02:59;100298.34;;;7.42;100.00
75157;BME280;63736;50.076;8.198;2024-02-21T02:04:30;100300.16;;;7.42;100.00
75157;BME280;63736;50.076;8.198;2024-02-21T02:06:00;100293.13;;;7.41;100.00
75157;BME280;63736;50.076;8.198;2024-02-21T02:07:30;100298.44;;;7.41;100.00
75157;BME280;63736;50.076;8.198;2024-02-21T02:09:01;100278.22;;;7.38;100.00
75157;BME280;63736;50.076;8.198;2024-02-21T02:10:31;100284.56;;;7.36;100.00
75157;BME280;63736;50.076;8.198;2024-02-21T02:12:02;100285.50;;;7.35;100.00
75157;BME280;63736;50.076;8.198;2024-02-21T02:13:32;100283.81;;;7.34;100.00
75157;BME280;63736;50.076;8.198;2024-02-21T02:15:03;100278.59;;;7.32;100.00
75157;BME280;63736;50.076;8.198;2024-02-21T02:16:34;100282.09;;;7.33;100.00
75157;BME280;63736;50.076;8.198;2024-02-21T02:18:05;100283.91;;;7.32;100.00
75157;BME280;63736;50.076;8.198;2024-02-21T02:19:35;100293.66;;;7.32;100.00
75157;BME280;63736;50.076;8.198;2024-02-21T02:21:14;100285.78;;;7.30;100.00
75157;BME280;63736;50.076;8.198;2024-02-21T02:22:48;100280.56;;;7.28;100.00
75157;BME280;63736;50.076;8.198;2024-02-21T02:24:19;100285.88;;;7.28;100.00
75157;BME280;63736;50.076;8.198;2024-02-21T02:25:50;100281.50;;;7.27;100.00
75157;BME280;63736;50.076;8.198;2024-02-21T02:27:23;100280.72;;;7.25;100.00
75157;BME280;63736;50.076;8.198;2024-02-21T02:28:54;100281.69;;;7.24;100.00
75157;BME280;63736;50.076;8.198;2024-02-21T02:30:24;100278.25;;;7.22;100.00
75157;BME280;63736;50.076;8.198;2024-02-21T02:31:55;100275.59;;;7.22;100.00
75157;BME280;63736;50.076;8.198;2024-02-21T02:33:25;100265.91;;;7.21;100.00
75157;BME280;63736;50.076;8.198;2024-02-21T02:34:55;100260.69;;;7.20;100.00
75157;BME280;63736;50.076;8.198;2024-02-21T02:36:26;100258.03;;;7.20;100.00
75157;BME280;63736;50.076;8.198;2024-02-21T02:37:57;100261.63;;;7.19;100.00
75157;BME280;63736;50.076;8.198;2024-02-21T02:39:27;100254.44;;;7.21;100.00
75157;BME280;63736;50.076;8.198;2024-02-21T02:40:57;100260.69;;;7.20;100.00
75157;BME280;63736;50.076;8.198;2024-02-21T02:42:28;100262.41;;;7.21;100.00
75157;BME280;63736;50.076;8.198;2024-02-21T02:43:58;100265.16;;;7.19;100.00
75157;BME280;63736;50.076;8.198;2024-02-21T02:45:28;100267.81;;;7.19;100.00
75157;BME280;63736;50.076;8.198;2024-02-21T02:46:59;100263.34;;;7.20;100.00
75157;BME280;63736;50.076;8.198;2024-02-21T02:48:29;100273.97;;;7.20;100.00
75157;BME280;63736;50.076;8.198;2024-02-21T02:50:00;100267.81;;;7.19;100.00
75157;BME280;63736;50.076;8.198;2024-02-21T02:51:30;100262.56;;;7.18;100.00
75157;BME280;63736;50.076;8.198;2024-02-21T02:53:00;100260.69;;;7.20;100.00
75157;BME280;63736;50.076;8.198;2024-02-21T02:54:30;100252.72;;;7.20;100.00
75157;BME280;63736;50.076;8.198;2024-02-21T02:56:01;100253.50;;;7.22;100.00
75157;BME280;63736;50.076;8.198;2024-02-21T02:57:31;100248.09;;;7.23;100.00
75157;BME280;63736;50.076;8.198;2024-02-21T02:59:02;100249.81;;;7.24;100.00
75157;BME280;63736;50.076;8.198;2024-02-21T03:00:32;100241.75;;;7.26;100.00
75157;BME280;63736;50.076;8.198;2024-02-21T03:02:06;100237.25;;;7.26;100.00
75157;BME280;63736;50.076;8.198;2024-02-21T03:03:36;100245.06;;;7.30;100.00
75157;BME280;63736;50.076;8.198;2024-02-21T03:05:17;100242.41;;;7.30;100.00
75157;BME280;63736;50.076;8.198;2024-02-21T03:06:48;100240.59;;;7.30;100.00
75157;BME280;63736;50.076;8.198;2024-02-21T03:08:18;100242.22;;;7.33;100.00
75157;BME280;63736;50.076;8.198;2024-02-21T03:09:48;100229.69;;;7.35;100.00
75157;BME280;63736;50.076;8.198;2024-02-21T03:11:19;100223.44;;;7.36;100.00
75157;BME280;63736;50.076;8.198;2024-02-21T03:12:49;100222.50;;;7.37;100.00
75157;BME280;63736;50.076;8.198;2024-02-21T03:14:20;100223.25;;;7.39;100.00
75157;BME280;63736;50.076;8.198;2024-02-21T03:15:50;100219.63;;;7.40;100.00
75157;BME280;63736;50.076;8.198;2024-02-21T03:17:21;100214.25;;;7.41;100.00
75157;BME280;63736;50.076;8.198;2024-02-21T03:18:51;100217.66;;;7.43;100.00
75157;BME280;63736;50.076;8.198;2024-02-21T03:20:22;100204.28;;;7.45;100.00
75157;BME280;63736;50.076;8.198;2024-02-21T03:21:52;100201.63;;;7.45;100.00
75157;BME280;63736;50.076;8.198;2024-02-21T03:23:22;100195.34;;;7.46;100.00
75157;BME280;63736;50.076;8.198;2024-02-21T03:24:53;100191.75;;;7.47;100.00
75157;BME280;63736;50.076;8.198;2024-02-21T03:26:23;100190.91;;;7.47;100.00
75157;BME280;63736;50.076;8.198;2024-02-21T03:27:53;100187.28;;;7.48;100.00
75157;BME280;63736;50.076;8.198;2024-02-21T03:29:24;100184.81;;;7.44;100.00
75157;BME280;63736;50.076;8.198;2024-02-21T03:30:54;100183.00;;;7.45;100.00
75157;BME280;63736;50.076;8.198;2024-02-21T03:32:25;100179.50;;;7.44;100.00
75157;BME280;63736;50.076;8.198;2024-02-21T03:33:55;100174.28;;;7.43;100.00
75157;BME280;63736;50.076;8.198;2024-02-21T03:35:25;100172.56;;;7.42;100.00
75157;BME280;63736;50.076;8.198;2024-02-21T03:36:57;100177.88;;;7.42;100.00
75157;BME280;63736;50.076;8.198;2024-02-21T03:38:27;100183.31;;;7.40;100.00
75157;BME280;63736;50.076;8.198;2024-02-21T03:39:57;100182.53;;;7.38;100.00
75157;BME280;63736;50.076;8.198;2024-02-21T03:41:28;100183.47;;;7.37;100.00
75157;BME280;63736;50.076;8.198;2024-02-21T03:42:58;100186.13;;;7.37;100.00
75157;BME280;63736;50.076;8.198;2024-02-21T03:44:29;100188.88;;;7.36;100.00
75157;BME280;63736;50.076;8.198;2024-02-21T03:45:59;100188.88;;;7.36;100.00
75157;BME280;63736;50.076;8.198;2024-02-21T03:47:29;100191.63;;;7.34;100.00
75157;BME280;63736;50.076;8.198;2024-02-21T03:49:00;100196.09;;;7.34;100.00
75157;BME280;63736;50.076;8.198;2024-02-21T03:50:30;100196.84;;;7.36;100.00
75157;BME280;63736;50.076;8.198;2024-02-21T03:52:01;100207.47;;;7.36;100.00
75157;BME280;63736;50.076;8.198;2024-02-21T03:53:31;100202.16;;;7.36;100.00
75157;BME280;63736;50.076;8.198;2024-02-21T03:55:01;100208.25;;;7.38;100.00
75157;BME280;63736;50.076;8.198;2024-02-21T03:56:32;100202.94;;;7.38;100.00
75157;BME280;63736;50.076;8.198;2024-02-21T03:58:02;100204.56;;;7.40;100.00
75157;BME280;63736;50.076;8.198;2024-02-21T03:59:32;100199.34;;;7.39;100.00
75157;BME280;63736;50.076;8.198;2024-02-21T04:01:03;100203.63;;;7.41;100.00
75157;BME280;63736;50.076;8.198;2024-02-21T04:02:33;100194.78;;;7.41;100.00
75157;BME280;63736;50.076;8.198;2024-02-21T04:04:04;100194.69;;;7.42;100.00
75157;BME280;63736;50.076;8.198;2024-02-21T04:05:35;100187.69;;;7.41;100.00
75157;BME280;63736;50.076;8.198;2024-02-21T04:07:05;100190.34;;;7.41;100.00
75157;BME280;63736;50.076;8.198;2024-02-21T04:08:36;100185.97;;;7.40;100.00
75157;BME280;63736;50.076;8.198;2024-02-21T04:10:07;100192.22;;;7.39;100.00
75157;BME280;63736;50.076;8.198;2024-02-21T04:11:37;100188.63;;;7.40;100.00
75157;BME280;63736;50.076;8.198;2024-02-21T04:13:07;100183.31;;;7.40;100.00
75157;BME280;63736;50.076;8.198;2024-02-21T04:14:38;100179.78;;;7.40;100.00
75157;BME280;63736;50.076;8.198;2024-02-21T04:16:10;100165.53;;;7.41;100.00
75157;BME280;63736;50.076;8.198;2024-02-21T04:17:40;100165.53;;;7.41;100.00
75157;BME280;63736;50.076;8.198;2024-02-21T04:19:10;100175.31;;;7.40;100.00
75157;BME280;63736;50.076;8.198;2024-02-21T04:20:40;100170.09;;;7.39;100.00
75157;BME280;63736;50.076;8.198;2024-02-21T04:22:11;100172.09;;;7.35;100.00
75157;BME280;63736;50.076;8.198;2024-02-21T04:23:41;100179.19;;;7.35;100.00
75157;BME280;63736;50.076;8.198;2024-02-21T04:25:11;100168.66;;;7.33;100.00
75157;BME280;63736;50.076;8.198;2024-02-21T04:26:42;100171.41;;;7.32;100.00
75157;BME280;63736;50.076;8.198;2024-02-21T04:28:13;100162.69;;;7.30;100.00
75157;BME280;63736;50.076;8.198;2024-02-21T04:29:43;100146.91;;;7.26;100.00
75157;BME280;63736;50.076;8.198;2024-02-21T04:31:14;100154.22;;;7.23;100.00
75157;BME280;63736;50.076;8.198;2024-02-21T04:32:44;100150.91;;;7.19;100.00
75157;BME280;63736;50.076;8.198;2024-02-21T04:34:15;100138.72;;;7.15;100.00
75157;BME280;63736;50.076;8.198;2024-02-21T04:35:45;100147.72;;;7.13;100.00
75157;BME280;63736;50.076;8.198;2024-02-21T04:37:15;100136.53;;;7.07;100.00
75157;BME280;63736;50.076;8.198;2024-02-21T04:38:46;100139.28;;;7.06;100.00
75157;BME280;63736;50.076;8.198;2024-02-21T04:40:16;100142.13;;;7.03;100.00
75157;BME280;63736;50.076;8.198;2024-02-21T04:41:47;100138.78;;;6.99;100.00
75157;BME280;63736;50.076;8.198;2024-02-21T04:43:17;100142.50;;;6.97;100.00
75157;BME280;63736;50.076;8.198;2024-02-21T04:44:47;100140.03;;;6.93;100.00
75157;BME280;63736;50.076;8.198;2024-02-21T04:46:17;100134.97;;;6.89;100.00
75157;BME280;63736;50.076;8.198;2024-02-21T04:47:48;100136.09;;;6.85;100.00
75157;BME280;63736;50.076;8.198;2024-02-21T04:49:18;100123.94;;;6.81;100.00
75157;BME280;63736;50.076;8.198;2024-02-21T04:50:48;100118.06;;;6.75;100.00
75157;BME280;63736;50.076;8.198;2024-02-21T04:52:19;100119.28;;;6.70;100.00
75157;BME280;63736;50.076;8.198;2024-02-21T04:53:50;100116.03;;;6.65;100.00
75157;BME280;63736;50.076;8.198;2024-02-21T04:55:20;100121.59;;;6.60;100.00
75157;BME280;63736;50.076;8.198;2024-02-21T04:56:51;100119.19;;;6.55;100.00
75157;BME280;63736;50.076;8.198;2024-02-21T04:58:21;100122.13;;;6.51;100.00
75157;BME280;63736;50.076;8.198;2024-02-21T04:59:51;100130.25;;;6.48;100.00
75157;BME280;63736;50.076;8.198;2024-02-21T05:01:21;100134.03;;;6.43;100.00
75157;BME280;63736;50.076;8.198;2024-02-21T05:02:52;100125.31;;;6.41;100.00
75157;BME280;63736;50.076;8.198;2024-02-21T05:04:22;100127.19;;;6.39;100.00
75157;BME280;63736;50.076;8.198;2024-02-21T05:05:52;100134.47;;;6.36;100.00
75157;BME280;63736;50.076;8.198;2024-02-21T05:07:22;100124.88;;;6.33;100.00
75157;BME280;63736;50.076;8.198;2024-02-21T05:08:53;100124.22;;;6.30;100.00
75157;BME280;63736;50.076;8.198;2024-02-21T05:10:25;100130.47;;;6.28;100.00
75157;BME280;63736;50.076;8.198;2024-02-21T05:11:55;100129.69;;;6.26;100.00
75157;BME280;63736;50.076;8.198;2024-02-21T05:13:26;100134.16;;;6.26;100.00
75157;BME280;63736;50.076;8.198;2024-02-21T05:14:56;100135.94;;;6.25;100.00
75157;BME280;63736;50.076;8.198;2024-02-21T05:16:26;100145.59;;;6.26;100.00
75157;BME280;63736;50.076;8.198;2024-02-21T05:17:56;100148.16;;;6.28;100.00
75157;BME280;63736;50.076;8.198;2024-02-21T05:19:27;100152.44;;;6.31;100.00
75157;BME280;63736;50.076;8.198;2024-02-21T05:20:57;100152.19;;;6.35;100.00
75157;BME280;63736;50.076;8.198;2024-02-21T05:22:27;100150.22;;;6.39;100.00
75157;BME280;63736;50.076;8.198;2024-02-21T05:23:57;100141.16;;;6.43;100.00
75157;BME280;63736;50.076;8.198;2024-02-21T05:25:28;100142.78;;;6.45;100.00
75157;BME280;63736;50.076;8.198;2024-02-21T05:26:58;100138.16;;;6.49;100.00
75157;BME280;63736;50.076;8.198;2024-02-21T05:28:28;100145.94;;;6.52;100.00
75157;BME280;63736;50.076;8.198;2024-02-21T05:29:59;100137.88;;;6.54;100.00
75157;BME280;63736;50.076;8.198;2024-02-21T05:33:22;100120.06;;;6.56;100.00
75157;BME280;63736;50.076;8.198;2024-02-21T05:34:53;100115.78;;;6.53;100.00
75157;BME280;63736;50.076;8.198;2024-02-21T05:36:23;100121.09;;;6.53;100.00
75157;BME280;63736;50.076;8.198;2024-02-21T05:37:53;100116.91;;;6.49;100.00
75157;BME280;63736;50.076;8.198;2024-02-21T05:39:24;100113.59;;;6.45;100.00
75157;BME280;63736;50.076;8.198;2024-02-21T05:40:54;100111.97;;;6.43;100.00
75157;BME280;63736;50.076;8.198;2024-02-21T05:42:24;100110.44;;;6.39;100.00
75157;BME280;63736;50.076;8.198;2024-02-21T05:43:54;100116.78;;;6.36;100.00
75157;BME280;63736;50.076;8.198;2024-02-21T05:45:25;100107.28;;;6.32;100.00
75157;BME280;63736;50.076;8.198;2024-02-21T05:46:55;100111.91;;;6.28;100.00
75157;BME280;63736;50.076;8.198;2024-02-21T05:48:25;100106.84;;;6.24;100.00
75157;BME280;63736;50.076;8.198;2024-02-21T05:49:55;100111.53;;;6.19;100.00
75157;BME280;63736;50.076;8.198;2024-02-21T05:51:26;100105.63;;;6.14;100.00
75157;BME280;63736;50.076;8.198;2024-02-21T05:52:56;100113.78;;;6.10;100.00
75157;BME280;63736;50.076;8.198;2024-02-21T05:54:27;100107.88;;;6.05;100.00
75157;BME280;63736;50.076;8.198;2024-02-21T05:55:57;100104.63;;;6.00;100.00
75157;BME280;63736;50.076;8.198;2024-02-21T05:57:27;100106.50;;;5.98;100.00
75157;BME280;63736;50.076;8.198;2024-02-21T05:58:58;100101.44;;;5.93;100.00
75157;BME280;63736;50.076;8.198;2024-02-21T06:00:28;100093.63;;;5.90;100.00
75157;BME280;63736;50.076;8.198;2024-02-21T06:01:59;100098.19;;;5.88;100.00
75157;BME280;63736;50.076;8.198;2024-02-21T06:03:30;100090.41;;;5.85;100.00
75157;BME280;63736;50.076;8.198;2024-02-21T06:05:00;100091.50;;;5.81;100.00
75157;BME280;63736;50.076;8.198;2024-02-21T06:06:30;100089.88;;;5.78;100.00
75157;BME280;63736;50.076;8.198;2024-02-21T06:08:00;100089.13;;;5.76;100.00
75157;BME280;63736;50.076;8.198;2024-02-21T06:09:31;100093.72;;;5.73;100.00
75157;BME280;63736;50.076;8.198;2024-02-21T06:11:02;100096.47;;;5.71;100.00
75157;BME280;63736;50.076;8.198;2024-02-21T06:12:32;100094.75;;;5.70;100.00
75157;BME280;63736;50.076;8.198;2024-02-21T06:14:02;100097.47;;;5.69;100.00
75157;BME280;63736;50.076;8.198;2024-02-21T06:15:33;100093.94;;;5.68;100.00
75157;BME280;63736;50.076;8.198;2024-02-21T06:17:03;100090.56;;;5.66;100.00
75157;BME280;63736;50.076;8.198;2024-02-21T06:18:35;100094.91;;;5.67;100.00
75157;BME280;63736;50.076;8.198;2024-02-21T06:20:07;100096.78;;;5.65;100.00
75157;BME280;63736;50.076;8.198;2024-02-21T06:21:38;100089.75;;;5.64;100.00
75157;BME280;63736;50.076;8.198;2024-02-21T06:23:08;100087.22;;;5.62;100.00
75157;BME280;63736;50.076;8.198;2024-02-21T06:24:38;100077.63;;;5.60;100.00
75157;BME280;63736;50.076;8.198;2024-02-21T06:26:09;100083.78;;;5.60;100.00
75157;BME280;63736;50.076;8.198;2024-02-21T06:27:39;100082.00;;;5.61;100.00
75157;BME280;63736;50.076;8.198;2024-02-21T06:29:11;100078.47;;;5.60;100.00
75157;BME280;63736;50.076;8.198;2024-02-21T06:30:41;100076.78;;;5.59;100.00
75157;BME280;63736;50.076;8.198;2024-02-21T06:32:11;100068.88;;;5.58;100.00
75157;BME280;63736;50.076;8.198;2024-02-21T06:33:42;100059.25;;;5.57;100.00
75157;BME280;63736;50.076;8.198;2024-02-21T06:35:13;100062.75;;;5.57;100.00
75157;BME280;63736;50.076;8.198;2024-02-21T06:36:44;100059.16;;;5.58;100.00
75157;BME280;63736;50.076;8.198;2024-02-21T06:38:15;100060.00;;;5.59;100.00
75157;BME280;63736;50.076;8.198;2024-02-21T06:39:47;100066.19;;;5.59;100.00
75157;BME280;63736;50.076;8.198;2024-02-21T06:41:17;100064.28;;;5.61;100.00
75157;BME280;63736;50.076;8.198;2024-02-21T06:42:49;100063.25;;;5.64;100.00
75157;BME280;63736;50.076;8.198;2024-02-21T06:44:21;100064.97;;;5.65;100.00
75157;BME280;63736;50.076;8.198;2024-02-21T06:45:51;100067.53;;;5.67;100.00
75157;BME280;63736;50.076;8.198;2024-02-21T06:47:22;100063.97;;;5.68;100.00
75157;BME280;63736;50.076;8.198;2024-02-21T06:48:52;100065.59;;;5.70;100.00
75157;BME280;63736;50.076;8.198;2024-02-21T06:50:23;100065.41;;;5.73;100.00
75157;BME280;63736;50.076;8.198;2024-02-21T06:51:53;100069.69;;;5.76;100.00
75157;BME280;63736;50.076;8.198;2024-02-21T06:53:23;100070.38;;;5.79;100.00
75157;BME280;63736;50.076;8.198;2024-02-21T06:54:53;100071.91;;;5.84;100.00
75157;BME280;63736;50.076;8.198;2024-02-21T06:56:24;100067.22;;;5.89;100.00
75157;BME280;63736;50.076;8.198;2024-02-21T06:57:58;100066.88;;;5.95;100.00
75157;BME280;63736;50.076;8.198;2024-02-21T06:59:29;100067.41;;;6.02;100.00
75157;BME280;63736;50.076;8.198;2024-02-21T07:00:59;100065.25;;;6.08;100.00
75157;BME280;63736;50.076;8.198;2024-02-21T07:02:29;100069.19;;;6.17;100.00
75157;BME280;63736;50.076;8.198;2024-02-21T07:03:59;100073.13;;;6.26;100.00
75157;BME280;63736;50.076;8.198;2024-02-21T07:05:30;100066.50;;;6.33;100.00
75157;BME280;63736;50.076;8.198;2024-02-21T07:07:00;100073.09;;;6.42;100.00
75157;BME280;63736;50.076;8.198;2024-02-21T07:08:31;100066.56;;;6.48;100.00
75157;BME280;63736;50.076;8.198;2024-02-21T07:10:01;100058.16;;;6.55;100.00
75157;BME280;63736;50.076;8.198;2024-02-21T07:11:31;100056.03;;;6.62;100.00
75157;BME280;63736;50.076;8.198;2024-02-21T07:13:01;100057.44;;;6.68;100.00
75157;BME280;63736;50.076;8.198;2024-02-21T07:14:32;100055.19;;;6.76;100.00
75157;BME280;63736;50.076;8.198;2024-02-21T07:16:03;100055.66;;;6.83;100.00
75157;BME280;63736;50.076;8.198;2024-02-21T07:17:34;100056.25;;;6.88;100.00
75157;BME280;63736;50.076;8.198;2024-02-21T07:19:04;100058.63;;;6.92;100.00
75157;BME280;63736;50.076;8.198;2024-02-21T07:20:34;100063.69;;;6.97;100.00
75157;BME280;63736;50.076;8.198;2024-02-21T07:22:06;100065.94;;;7.03;100.00
75157;BME280;63736;50.076;8.198;2024-02-21T07:23:40;100063.88;;;7.08;100.00
75157;BME280;63736;50.076;8.198;2024-02-21T07:25:11;100067.09;;;7.14;100.00
75157;BME280;63736;50.076;8.198;2024-02-21T07:26:42;100066.72;;;7.20;100.00
75157;BME280;63736;50.076;8.198;2024-02-21T07:28:15;100065.41;;;7.27;100.00
75157;BME280;63736;50.076;8.198;2024-02-21T07:29:46;100067.56;;;7.35;100.00
75157;BME280;63736;50.076;8.198;2024-02-21T07:31:19;100064.44;;;7.42;100.00
75157;BME280;63736;50.076;8.198;2024-02-21T07:32:50;100060.34;;;7.51;100.00
75157;BME280;63736;50.076;8.198;2024-02-21T07:34:21;100068.63;;;7.61;100.00
75157;BME280;63736;50.076;8.198;2024-02-21T07:35:51;100061.00;;;7.69;100.00
75157;BME280;63736;50.076;8.198;2024-02-21T07:37:22;100068.50;;;7.77;100.00
75157;BME280;63736;50.076;8.198;2024-02-21T07:38:53;100055.66;;;7.84;100.00
75157;BME280;63736;50.076;8.198;2024-02-21T07:40:23;100057.94;;;7.90;100.00
75157;BME280;63736;50.076;8.198;2024-02-21T07:41:53;100063.50;;;8.00;100.00
75157;BME280;63736;50.076;8.198;2024-02-21T07:43:23;100060.44;;;8.06;100.00
75157;BME280;63736;50.076;8.198;2024-02-21T07:44:56;100056.22;;;8.16;100.00
75157;BME280;63736;50.076;8.198;2024-02-21T07:46:26;100053.28;;;8.21;100.00
75157;BME280;63736;50.076;8.198;2024-02-21T07:47:57;100053.19;;;8.22;100.00
75157;BME280;63736;50.076;8.198;2024-02-21T07:49:27;100055.22;;;8.32;100.00
75157;BME280;63736;50.076;8.198;2024-02-21T07:50:58;100047.56;;;8.40;100.00
75157;BME280;63736;50.076;8.198;2024-02-21T07:52:28;100045.31;;;8.48;100.00
75157;BME280;63736;50.076;8.198;2024-02-21T07:53:58;100045.53;;;8.58;100.00
75157;BME280;63736;50.076;8.198;2024-02-21T07:55:28;100046.94;;;8.64;100.00